Time,TemperatureF,DewpointF,PressureIn,WindDirection,WindDirectionDegrees,WindSpeedMPH,WindSpeedGustMPH,Humidity,HourlyPrecipIn,Conditions,Clouds,dailyrainin,SoftwareType,DateUTC
2013-01-02 00:03:00,15.8,9.5,30.19,SE,135,0.0,0.0,76,0.00,,,0.00,WUHU216HW,2013-01-02 06:03:00,
2013-01-02 00:08:00,15.8,9.5,30.19,SE,135,0.0,0.0,76,0.00,,,0.00,WUHU216HW,2013-01-02 06:08:00,
2013-01-02 00:13:00,15.8,9.5,30.19,SE,135,0.0,0.0,76,0.00,,,0.00,WUHU216HW,2013-01-02 06:13:00,
2013-01-02 00:18:00,15.8,9.5,30.19,SE,135,0.0,0.0,76,0.00,,,0.00,WUHU216HW,2013-01-02 06:18:00,
2013-01-02 00:23:00,15.8,9.5,30.19,SE,135,0.0,0.0,76,0.00,,,0.00,WUHU216HW,2013-01-02 06:23:00,
2013-01-02 00:28:00,15.8,9.5,30.19,SE,135,0.0,0.0,76,0.00,,,0.00,WUHU216HW,2013-01-02 06:28:00,
2013-01-02 00:33:00,16.0,9.7,30.19,SE,135,0.0,0.0,76,0.00,,,0.00,WUHU216HW,2013-01-02 06:33:00,
2013-01-02 00:38:00,16.0,9.7,30.19,SE,135,0.0,0.0,76,0.00,,,0.00,WUHU216HW,2013-01-02 06:38:00,
2013-01-02 00:43:00,16.0,9.7,30.19,SE,135,0.0,0.0,76,0.00,,,0.00,WUHU216HW,2013-01-02 06:43:00,
2013-01-02 00:48:00,16.0,9.7,30.19,SE,135,0.0,0.0,76,0.00,,,0.00,WUHU216HW,2013-01-02 06:48:00,
2013-01-02 00:53:00,16.0,9.7,30.19,SE,135,0.0,0.0,76,0.00,,,0.00,WUHU216HW,2013-01-02 06:53:00,
2013-01-02 00:58:00,15.8,9.5,30.19,SE,135,0.0,0.0,76,0.00,,,0.00,WUHU216HW,2013-01-02 06:58:00,
2013-01-02 01:03:00,15.8,9.5,30.19,SE,135,0.0,0.0,76,0.00,,,0.00,WUHU216HW,2013-01-02 07:03:00,
2013-01-02 01:08:00,15.8,9.5,30.19,SE,135,0.0,0.0,76,0.00,,,0.00,WUHU216HW,2013-01-02 07:08:00,
2013-01-02 01:14:00,15.8,9.5,30.17,SE,135,0.0,0.0,76,0.00,,,0.00,WUHU216HW,2013-01-02 07:14:00,
2013-01-02 01:19:00,15.8,9.5,30.17,SE,135,0.0,0.0,76,0.00,,,0.00,WUHU216HW,2013-01-02 07:19:00,
2013-01-02 01:24:00,15.8,9.5,30.17,SE,135,0.0,0.0,76,0.00,,,0.00,WUHU216HW,2013-01-02 07:24:00,
2013-01-02 01:29:00,15.8,9.5,30.17,SE,135,0.0,0.0,76,0.00,,,0.00,WUHU216HW,2013-01-02 07:29:00,
2013-01-02 01:34:00,15.7,9.4,30.17,SE,135,0.0,0.0,76,0.00,,,0.00,WUHU216HW,2013-01-02 07:34:00,
2013-01-02 01:39:00,15.7,9.4,30.17,SE,135,0.0,0.0,76,0.00,,,0.00,WUHU216HW,2013-01-02 07:39:00,
2013-01-02 01:44:00,15.5,9.3,30.17,SE,135,0.0,0.0,76,0.00,,,0.00,WUHU216HW,2013-01-02 07:44:00,
2013-01-02 01:49:00,15.5,9.3,30.17,SE,135,0.0,0.0,76,0.00,,,0.00,WUHU216HW,2013-01-02 07:49:00,
2013-01-02 01:54:00,15.5,9.3,30.18,SE,135,0.0,0.0,76,0.00,,,0.00,WUHU216HW,2013-01-02 07:54:00,
2013-01-02 01:59:00,15.3,9.1,30.19,SE,135,0.0,0.0,76,0.00,,,0.00,WUHU216HW,2013-01-02 07:59:00,
2013-01-02 02:04:00,15.5,9.3,30.18,SE,135,0.0,0.0,76,0.00,,,0.00,WUHU216HW,2013-01-02 08:04:00,
2013-01-02 02:09:00,15.5,9.3,30.18,SE,135,0.0,0.0,76,0.00,,,0.00,WUHU216HW,2013-01-02 08:09:00,
2013-01-02 02:14:00,15.5,9.3,30.17,SE,135,0.0,0.0,76,0.00,,,0.00,WUHU216HW,2013-01-02 08:14:00,
2013-01-02 02:19:00,15.5,9.3,30.17,SE,135,0.0,0.0,76,0.00,,,0.00,WUHU216HW,2013-01-02 08:19:00,
2013-01-02 02:25:00,15.5,9.3,30.18,SE,135,0.0,0.0,76,0.00,,,0.00,WUHU216HW,2013-01-02 08:25:00,
2013-01-02 02:30:00,15.5,9.3,30.17,SE,135,0.0,0.0,76,0.00,,,0.00,WUHU216HW,2013-01-02 08:30:00,
2013-01-02 02:35:00,15.5,9.3,30.17,SE,135,0.0,0.0,76,0.00,,,0.00,WUHU216HW,2013-01-02 08:35:00,
2013-01-02 02:40:00,15.5,9.6,30.17,SE,135,0.0,0.0,77,0.00,,,0.00,WUHU216HW,2013-01-02 08:40:00,
2013-01-02 02:45:00,15.5,9.6,30.17,SE,135,0.0,0.0,77,0.00,,,0.00,WUHU216HW,2013-01-02 08:45:00,
2013-01-02 02:50:00,15.8,10.2,30.18,SE,135,0.0,0.0,78,0.00,,,0.00,WUHU216HW,2013-01-02 08:50:00,
2013-01-02 02:55:00,16.0,10.4,30.17,SE,135,0.0,0.0,78,0.00,,,0.00,WUHU216HW,2013-01-02 08:55:00,
2013-01-02 03:00:00,16.2,10.8,30.17,SE,135,0.0,0.0,79,0.00,,,0.00,WUHU216HW,2013-01-02 09:00:00,
2013-01-02 03:05:00,16.2,10.5,30.17,SE,135,0.0,0.0,78,0.00,,,0.00,WUHU216HW,2013-01-02 09:05:00,
2013-01-02 03:10:00,16.2,10.5,30.17,SE,135,0.0,0.0,78,0.00,,,0.00,WUHU216HW,2013-01-02 09:10:00,
2013-01-02 03:16:00,16.2,10.5,30.17,SE,135,0.0,0.0,78,0.00,,,0.00,WUHU216HW,2013-01-02 09:16:00,
2013-01-02 03:21:00,16.2,10.5,30.17,SE,135,0.0,0.0,78,0.00,,,0.00,WUHU216HW,2013-01-02 09:21:00,
2013-01-02 03:26:00,16.2,10.5,30.17,SE,135,0.0,0.0,78,0.00,,,0.00,WUHU216HW,2013-01-02 09:26:00,
2013-01-02 03:31:00,16.2,10.5,30.17,SE,135,0.0,0.0,78,0.00,,,0.00,WUHU216HW,2013-01-02 09:31:00,
2013-01-02 03:36:00,16.2,10.5,30.17,SE,135,0.0,0.0,78,0.00,,,0.00,WUHU216HW,2013-01-02 09:36:00,
2013-01-02 03:41:00,16.2,10.8,30.17,SE,135,0.0,0.0,79,0.00,,,0.00,WUHU216HW,2013-01-02 09:41:00,
2013-01-02 03:46:00,16.2,10.8,30.17,SE,135,0.0,0.0,79,0.00,,,0.00,WUHU216HW,2013-01-02 09:46:00,
2013-01-02 03:51:00,16.2,10.8,30.17,SE,135,0.0,0.0,79,0.00,,,0.00,WUHU216HW,2013-01-02 09:51:00,
2013-01-02 03:56:00,16.2,10.8,30.17,SE,135,0.0,0.0,79,0.00,,,0.00,WUHU216HW,2013-01-02 09:56:00,
2013-01-02 04:01:00,16.4,11.0,30.16,SE,135,0.0,0.0,79,0.00,,,0.00,WUHU216HW,2013-01-02 10:01:00,
2013-01-02 04:06:00,16.6,11.2,30.16,SE,135,0.0,0.0,79,0.00,,,0.00,WUHU216HW,2013-01-02 10:06:00,
2013-01-02 04:11:00,16.7,11.4,30.16,SE,135,0.0,0.0,79,0.00,,,0.00,WUHU216HW,2013-01-02 10:11:00,
2013-01-02 04:17:00,16.7,11.4,30.15,SE,135,0.0,0.0,79,0.00,,,0.00,WUHU216HW,2013-01-02 10:17:00,
2013-01-02 04:22:00,16.9,11.8,30.15,SE,135,0.0,0.0,80,0.00,,,0.00,WUHU216HW,2013-01-02 10:22:00,
2013-01-02 04:27:00,17.1,11.6,30.15,SE,135,0.0,0.0,79,0.00,,,0.00,WUHU216HW,2013-01-02 10:27:00,
2013-01-02 04:32:00,17.1,11.6,30.15,SE,135,0.0,0.0,79,0.00,,,0.00,WUHU216HW,2013-01-02 10:32:00,
2013-01-02 04:37:00,17.1,11.6,30.15,SE,135,0.0,0.0,79,0.00,,,0.00,WUHU216HW,2013-01-02 10:37:00,
2013-01-02 04:42:00,17.1,12.0,30.15,SE,135,0.0,0.0,80,0.00,,,0.00,WUHU216HW,2013-01-02 10:42:00,
2013-01-02 04:47:00,17.1,11.6,30.15,SE,135,0.0,0.0,79,0.00,,,0.00,WUHU216HW,2013-01-02 10:47:00,
2013-01-02 04:52:00,17.1,11.6,30.15,SE,135,0.0,0.0,79,0.00,,,0.00,WUHU216HW,2013-01-02 10:52:00,
2013-01-02 04:58:00,17.3,11.8,30.14,SE,135,0.0,0.0,79,0.00,,,0.00,WUHU216HW,2013-01-02 10:58:00,
2013-01-02 05:03:00,17.3,11.8,30.14,SE,135,0.0,0.0,79,0.00,,,0.00,WUHU216HW,2013-01-02 11:03:00,
2013-01-02 05:08:00,17.1,11.6,30.14,SE,135,0.0,0.0,79,0.00,,,0.00,WUHU216HW,2013-01-02 11:08:00,
2013-01-02 05:13:00,16.9,11.5,30.14,SE,135,0.0,0.0,79,0.00,,,0.00,WUHU216HW,2013-01-02 11:13:00,
2013-01-02 05:18:00,17.1,11.6,30.14,SE,135,0.0,0.0,79,0.00,,,0.00,WUHU216HW,2013-01-02 11:18:00,
2013-01-02 05:23:00,17.1,11.6,30.14,SE,135,0.0,0.0,79,0.00,,,0.00,WUHU216HW,2013-01-02 11:23:00,
2013-01-02 05:28:00,17.1,11.6,30.14,SE,135,0.0,0.0,79,0.00,,,0.00,WUHU216HW,2013-01-02 11:28:00,
2013-01-02 05:33:00,16.9,11.5,30.14,SE,135,0.0,0.0,79,0.00,,,0.00,WUHU216HW,2013-01-02 11:33:00,
2013-01-02 05:38:00,16.9,11.5,30.14,SE,135,0.0,0.0,79,0.00,,,0.00,WUHU216HW,2013-01-02 11:38:00,
2013-01-02 05:43:00,16.9,11.5,30.14,SE,135,0.0,0.0,79,0.00,,,0.00,WUHU216HW,2013-01-02 11:43:00,
2013-01-02 05:48:00,16.9,11.8,30.14,SE,135,0.0,0.0,80,0.00,,,0.00,WUHU216HW,2013-01-02 11:48:00,
2013-01-02 05:53:00,17.1,12.0,30.14,SE,135,0.0,0.0,80,0.00,,,0.00,WUHU216HW,2013-01-02 11:53:00,
2013-01-02 05:58:00,17.3,12.3,30.14,SE,135,0.0,0.0,81,0.00,,,0.00,WUHU216HW,2013-01-02 11:58:00,
2013-01-02 06:03:00,17.5,12.2,30.14,SE,135,0.0,0.0,80,0.00,,,0.00,WUHU216HW,2013-01-02 12:03:00,
2013-01-02 06:08:00,17.3,12.1,30.14,SE,135,0.0,0.0,80,0.00,,,0.00,WUHU216HW,2013-01-02 12:08:00,
2013-01-02 06:13:00,17.3,12.1,30.14,SE,135,0.0,0.0,80,0.00,,,0.00,WUHU216HW,2013-01-02 12:13:00,
2013-01-02 06:19:00,17.3,12.1,30.14,SE,135,0.0,0.0,80,0.00,,,0.00,WUHU216HW,2013-01-02 12:19:00,
2013-01-02 06:24:00,17.3,12.3,30.14,SE,135,0.0,0.0,81,0.00,,,0.00,WUHU216HW,2013-01-02 12:24:00,
2013-01-02 06:29:00,17.3,12.1,30.13,SE,135,0.0,0.0,80,0.00,,,0.00,WUHU216HW,2013-01-02 12:29:00,
2013-01-02 06:34:00,17.1,12.0,30.13,SE,135,0.0,0.0,80,0.00,,,0.00,WUHU216HW,2013-01-02 12:34:00,
2013-01-02 06:39:00,17.3,12.3,30.14,SE,135,0.0,0.0,81,0.00,,,0.00,WUHU216HW,2013-01-02 12:39:00,
2013-01-02 06:44:00,17.5,12.5,30.14,SE,135,0.0,0.0,81,0.00,,,0.00,WUHU216HW,2013-01-02 12:44:00,
2013-01-02 06:49:00,17.5,12.5,30.14,SE,135,0.0,0.0,81,0.00,,,0.00,WUHU216HW,2013-01-02 12:49:00,
2013-01-02 06:54:00,17.6,12.7,30.14,SE,135,0.0,0.0,81,0.00,,,0.00,WUHU216HW,2013-01-02 12:54:00,
2013-01-02 06:59:00,17.6,12.7,30.14,SE,135,0.0,0.0,81,0.00,,,0.00,WUHU216HW,2013-01-02 12:59:00,
2013-01-02 07:04:00,17.6,12.7,30.14,SE,135,0.0,0.0,81,0.00,,,0.00,WUHU216HW,2013-01-02 13:04:00,
2013-01-02 07:10:00,17.6,12.7,30.14,SE,135,0.0,0.0,81,0.00,,,0.00,WUHU216HW,2013-01-02 13:10:00,
2013-01-02 07:15:00,17.6,12.7,30.14,SE,135,0.0,0.0,81,0.00,,,0.00,WUHU216HW,2013-01-02 13:15:00,
2013-01-02 07:20:00,17.6,12.7,30.14,SE,135,0.0,0.0,81,0.00,,,0.00,WUHU216HW,2013-01-02 13:20:00,
2013-01-02 07:25:00,17.6,12.7,30.14,SE,135,0.0,0.0,81,0.00,,,0.00,WUHU216HW,2013-01-02 13:25:00,
2013-01-02 07:30:00,17.5,12.5,30.14,SE,135,0.0,0.0,81,0.00,,,0.00,WUHU216HW,2013-01-02 13:30:00,
2013-01-02 07:35:00,17.5,12.5,30.14,SE,135,0.0,0.0,81,0.00,,,0.00,WUHU216HW,2013-01-02 13:35:00,
2013-01-02 07:40:00,17.3,12.3,30.14,SE,135,0.0,0.0,81,0.00,,,0.00,WUHU216HW,2013-01-02 13:40:00,
2013-01-02 07:46:00,17.3,12.3,30.13,SE,135,0.0,0.0,81,0.00,,,0.00,WUHU216HW,2013-01-02 13:46:00,
2013-01-02 07:51:00,17.3,12.3,30.13,SE,135,0.0,0.0,81,0.00,,,0.00,WUHU216HW,2013-01-02 13:51:00,
2013-01-02 07:56:00,17.3,12.3,30.12,SE,135,0.0,0.0,81,0.00,,,0.00,WUHU216HW,2013-01-02 13:56:00,
2013-01-02 08:01:00,17.6,12.7,30.12,SE,135,0.0,0.0,81,0.00,,,0.00,WUHU216HW,2013-01-02 14:01:00,
2013-01-02 08:06:00,17.8,12.9,30.12,SE,135,0.0,0.0,81,0.00,,,0.00,WUHU216HW,2013-01-02 14:06:00,
2013-01-02 08:11:00,18.4,13.7,30.12,SE,135,0.0,0.0,82,0.00,,,0.00,WUHU216HW,2013-01-02 14:11:00,
2013-01-02 08:16:00,18.5,13.9,30.12,SE,135,0.0,0.0,82,0.00,,,0.00,WUHU216HW,2013-01-02 14:16:00,
2013-01-02 08:21:00,19.1,14.4,30.12,SE,135,0.0,0.0,82,0.00,,,0.00,WUHU216HW,2013-01-02 14:21:00,
2013-01-02 08:27:00,19.6,14.9,30.12,SE,135,0.0,0.0,82,0.00,,,0.00,WUHU216HW,2013-01-02 14:27:00,
2013-01-02 08:32:00,20.2,15.8,30.12,SE,135,0.0,0.0,83,0.00,,,0.00,WUHU216HW,2013-01-02 14:32:00,
2013-01-02 08:37:00,20.7,16.0,30.12,SE,135,0.0,0.0,82,0.00,,,0.00,WUHU216HW,2013-01-02 14:37:00,
2013-01-02 08:42:00,21.2,16.6,30.12,SE,135,0.0,0.0,82,0.00,,,0.00,WUHU216HW,2013-01-02 14:42:00,
2013-01-02 08:47:00,21.8,17.1,30.12,SE,135,0.0,0.0,82,0.00,,,0.00,WUHU216HW,2013-01-02 14:47:00,
2013-01-02 08:52:00,22.0,17.0,30.12,SE,135,0.0,0.0,81,0.00,,,0.00,WUHU216HW,2013-01-02 14:52:00,
2013-01-02 08:57:00,22.3,17.4,30.12,SE,135,0.0,0.0,81,0.00,,,0.00,WUHU216HW,2013-01-02 14:57:00,
2013-01-02 09:02:00,22.7,17.7,30.12,SE,135,0.0,0.0,81,0.00,,,0.00,WUHU216HW,2013-01-02 15:02:00,
2013-01-02 09:08:00,22.9,17.9,30.12,SE,135,0.0,0.0,81,0.00,,,0.00,WUHU216HW,2013-01-02 15:08:00,
2013-01-02 09:13:00,23.2,18.0,30.13,SE,135,0.0,0.0,80,0.00,,,0.00,WUHU216HW,2013-01-02 15:13:00,
2013-01-02 09:18:00,23.6,18.4,30.12,SE,135,0.0,0.0,80,0.00,,,0.00,WUHU216HW,2013-01-02 15:18:00,
2013-01-02 09:23:00,24.1,18.9,30.13,SE,135,0.0,0.0,80,0.00,,,0.00,WUHU216HW,2013-01-02 15:23:00,
2013-01-02 09:28:00,24.8,19.6,30.13,SE,135,0.0,0.0,80,0.00,,,0.00,WUHU216HW,2013-01-02 15:28:00,
2013-01-02 09:33:00,25.7,20.7,30.13,SE,135,0.0,0.0,81,0.00,,,0.00,WUHU216HW,2013-01-02 15:33:00,
2013-01-02 09:38:00,27.0,21.6,30.13,SE,135,0.0,0.0,80,0.00,,,0.00,WUHU216HW,2013-01-02 15:38:00,
2013-01-02 09:43:00,27.4,21.7,30.13,SE,135,0.0,0.0,79,0.00,,,0.00,WUHU216HW,2013-01-02 15:43:00,
2013-01-02 09:48:00,27.7,21.7,30.13,SE,135,0.0,0.0,78,0.00,,,0.00,WUHU216HW,2013-01-02 15:48:00,
2013-01-02 09:53:00,27.5,21.3,30.13,SE,135,0.0,0.0,77,0.00,,,0.00,WUHU216HW,2013-01-02 15:53:00,
2013-01-02 09:58:00,27.5,21.3,30.13,SE,135,0.0,0.0,77,0.00,,,0.00,WUHU216HW,2013-01-02 15:58:00,
2013-01-02 10:03:00,27.4,21.1,30.13,SE,135,0.0,0.0,77,0.00,,,0.00,WUHU216HW,2013-01-02 16:03:00,
2013-01-02 10:08:00,27.5,21.3,30.13,SE,135,0.0,0.0,77,0.00,,,0.00,WUHU216HW,2013-01-02 16:08:00,
2013-01-02 10:13:00,27.4,20.7,30.13,SE,135,0.0,0.0,76,0.00,,,0.00,WUHU216HW,2013-01-02 16:13:00,
2013-01-02 10:18:00,27.5,20.9,30.13,SE,135,0.0,0.0,76,0.00,,,0.00,WUHU216HW,2013-01-02 16:18:00,
2013-01-02 10:23:00,27.9,21.2,30.14,SE,135,0.0,0.0,76,0.00,,,0.00,WUHU216HW,2013-01-02 16:23:00,
2013-01-02 10:28:00,28.3,21.6,30.14,SE,135,0.0,0.0,76,0.00,,,0.00,WUHU216HW,2013-01-02 16:28:00,
2013-01-02 10:33:00,28.4,21.8,30.14,SE,135,0.0,0.0,76,0.00,,,0.00,WUHU216HW,2013-01-02 16:33:00,
2013-01-02 10:38:00,29.0,22.1,30.14,SE,135,0.0,0.0,75,0.00,,,0.00,WUHU216HW,2013-01-02 16:38:00,
2013-01-02 10:44:00,29.3,22.4,30.14,SE,135,0.0,0.0,75,0.00,,,0.00,WUHU216HW,2013-01-02 16:44:00,
2013-01-02 10:49:00,29.7,23.1,30.14,SE,135,0.0,0.0,76,0.00,,,0.00,WUHU216HW,2013-01-02 16:49:00,
2013-01-02 10:54:00,30.2,23.2,30.14,SE,135,0.0,0.0,75,0.00,,,0.00,WUHU216HW,2013-01-02 16:54:00,
2013-01-02 10:59:00,30.8,23.8,30.14,SE,135,0.0,0.0,75,0.00,,,0.00,WUHU216HW,2013-01-02 16:59:00,
2013-01-02 11:04:00,31.3,23.9,30.14,SE,135,0.0,0.0,74,0.00,,,0.00,WUHU216HW,2013-01-02 17:04:00,
2013-01-02 11:09:00,31.9,24.5,30.14,SE,135,0.0,0.0,74,0.00,,,0.00,WUHU216HW,2013-01-02 17:09:00,
2013-01-02 11:14:00,32.0,24.4,30.14,SE,135,0.0,0.0,73,0.00,,,0.00,WUHU216HW,2013-01-02 17:14:00,
2013-01-02 11:19:00,32.4,24.7,30.14,SE,135,0.0,0.0,73,0.00,,,0.00,WUHU216HW,2013-01-02 17:19:00,
2013-01-02 11:24:00,32.8,24.7,30.14,SE,135,0.0,0.0,72,0.00,,,0.00,WUHU216HW,2013-01-02 17:24:00,
2013-01-02 11:30:00,32.8,24.7,30.14,SE,135,0.0,0.0,72,0.00,,,0.00,WUHU216HW,2013-01-02 17:30:00,
2013-01-02 11:35:00,32.8,24.7,30.14,SE,135,0.0,0.0,72,0.00,,,0.00,WUHU216HW,2013-01-02 17:35:00,
2013-01-02 11:40:00,32.9,24.8,30.13,SE,135,0.0,0.0,72,0.00,,,0.00,WUHU216HW,2013-01-02 17:40:00,
2013-01-02 11:45:00,33.1,24.7,30.12,SE,135,0.0,0.0,71,0.00,,,0.00,WUHU216HW,2013-01-02 17:45:00,
2013-01-02 11:50:00,32.9,24.8,30.12,SE,135,0.0,0.0,72,0.00,,,0.00,WUHU216HW,2013-01-02 17:50:00,
2013-01-02 11:55:00,33.1,24.7,30.12,SE,135,0.0,0.0,71,0.00,,,0.00,WUHU216HW,2013-01-02 17:55:00,
2013-01-02 12:00:00,33.1,24.7,30.12,SE,135,0.0,0.0,71,0.00,,,0.00,WUHU216HW,2013-01-02 18:00:00,
2013-01-02 12:05:00,32.9,24.6,30.11,SE,135,0.0,0.0,71,0.00,,,0.00,WUHU216HW,2013-01-02 18:05:00,
2013-01-02 12:10:00,32.8,24.4,30.10,SE,135,0.0,0.0,71,0.00,,,0.00,WUHU216HW,2013-01-02 18:10:00,
2013-01-02 12:15:00,32.8,24.4,30.10,SE,135,0.0,0.0,71,0.01,,,0.01,WUHU216HW,2013-01-02 18:15:00,
2013-01-02 12:21:00,32.8,24.4,30.10,SE,135,0.0,0.0,71,0.01,,,0.01,WUHU216HW,2013-01-02 18:21:00,
2013-01-02 12:26:00,32.8,24.7,30.10,SE,135,0.0,0.0,72,0.01,,,0.01,WUHU216HW,2013-01-02 18:26:00,
2013-01-02 12:31:00,32.8,24.7,30.10,SE,135,0.0,0.0,72,0.01,,,0.01,WUHU216HW,2013-01-02 18:31:00,
2013-01-02 12:36:00,32.8,24.7,30.10,SE,135,0.0,0.0,72,0.01,,,0.01,WUHU216HW,2013-01-02 18:36:00,
2013-01-02 12:41:00,32.8,24.7,30.10,SE,135,0.0,0.0,72,0.01,,,0.01,WUHU216HW,2013-01-02 18:41:00,
2013-01-02 12:46:00,32.8,24.0,30.10,SE,135,0.0,0.0,70,0.01,,,0.01,WUHU216HW,2013-01-02 18:46:00,
2013-01-02 12:51:00,32.8,24.4,30.10,SE,135,0.0,0.0,71,0.01,,,0.01,WUHU216HW,2013-01-02 18:51:00,
2013-01-02 12:57:00,32.9,24.6,30.10,SE,135,0.0,0.0,71,0.01,,,0.01,WUHU216HW,2013-01-02 18:57:00,
2013-01-02 13:02:00,33.3,24.8,30.10,SE,135,0.0,0.0,71,0.01,,,0.01,WUHU216HW,2013-01-02 19:02:00,
2013-01-02 13:07:00,33.5,24.7,30.09,SE,135,0.0,0.0,70,0.01,,,0.01,WUHU216HW,2013-01-02 19:07:00,
2013-01-02 13:12:00,33.5,24.7,30.10,SE,135,0.0,0.0,70,0.00,,,0.01,WUHU216HW,2013-01-02 19:12:00,
2013-01-02 13:17:00,34.2,25.8,30.09,SE,135,0.0,0.0,71,0.00,,,0.01,WUHU216HW,2013-01-02 19:17:00,
2013-01-02 13:22:00,34.2,25.4,30.09,SE,135,0.0,0.0,70,0.00,,,0.01,WUHU216HW,2013-01-02 19:22:00,
2013-01-02 13:27:00,34.2,25.4,30.09,SE,135,0.0,0.0,70,0.00,,,0.01,WUHU216HW,2013-01-02 19:27:00,
2013-01-02 13:32:00,34.6,26.1,30.09,SE,135,0.0,0.0,71,0.00,,,0.01,WUHU216HW,2013-01-02 19:32:00,
2013-01-02 13:37:00,34.9,26.1,30.09,SE,135,0.0,0.0,70,0.00,,,0.01,WUHU216HW,2013-01-02 19:37:00,
2013-01-02 13:42:00,34.9,26.5,30.09,SE,135,0.0,0.0,71,0.00,,,0.01,WUHU216HW,2013-01-02 19:42:00,
2013-01-02 13:48:00,35.1,26.7,30.08,SE,135,0.0,0.0,71,0.00,,,0.01,WUHU216HW,2013-01-02 19:48:00,
2013-01-02 13:53:00,35.6,26.8,30.08,SE,135,0.0,0.0,70,0.00,,,0.01,WUHU216HW,2013-01-02 19:53:00,
2013-01-02 13:58:00,36.4,27.2,30.08,SE,135,0.0,0.0,69,0.00,,,0.01,WUHU216HW,2013-01-02 19:58:00,
2013-01-02 14:03:00,36.5,27.0,30.08,SE,135,0.0,0.0,68,0.01,,,0.02,WUHU216HW,2013-01-02 20:03:00,
2013-01-02 14:08:00,36.0,26.5,30.08,SE,135,0.0,0.0,68,0.01,,,0.02,WUHU216HW,2013-01-02 20:08:00,
2013-01-02 14:13:00,36.0,26.8,30.08,SE,135,0.0,0.0,69,0.02,,,0.03,WUHU216HW,2013-01-02 20:13:00,
2013-01-02 14:18:00,36.9,27.7,30.08,SE,135,0.0,0.0,69,0.02,,,0.03,WUHU216HW,2013-01-02 20:18:00,
2013-01-02 14:23:00,38.0,28.0,30.08,SE,135,0.0,0.0,67,0.02,,,0.03,WUHU216HW,2013-01-02 20:23:00,
2013-01-02 14:29:00,39.1,28.5,30.08,SE,135,0.0,0.0,66,0.03,,,0.04,WUHU216HW,2013-01-02 20:29:00,
2013-01-02 14:34:00,38.9,27.6,30.08,SE,135,0.0,0.0,64,0.03,,,0.04,WUHU216HW,2013-01-02 20:34:00,
2013-01-02 14:39:00,38.0,26.8,30.08,SE,135,0.0,0.0,64,0.03,,,0.04,WUHU216HW,2013-01-02 20:39:00,
2013-01-02 14:44:00,36.7,26.0,30.07,SE,135,0.0,0.0,65,0.03,,,0.04,WUHU216HW,2013-01-02 20:44:00,
2013-01-02 14:49:00,36.0,25.8,30.08,SE,135,0.0,0.0,66,0.03,,,0.04,WUHU216HW,2013-01-02 20:49:00,
2013-01-02 14:54:00,35.8,26.3,30.08,SE,135,0.0,0.0,68,0.03,,,0.04,WUHU216HW,2013-01-02 20:54:00,
2013-01-02 14:59:00,36.2,26.7,30.09,SE,135,0.0,0.0,68,0.02,,,0.04,WUHU216HW,2013-01-02 20:59:00,
2013-01-02 15:04:00,36.2,26.7,30.09,SE,135,0.0,0.0,68,0.02,,,0.04,WUHU216HW,2013-01-02 21:04:00,
2013-01-02 15:09:00,36.2,26.7,30.09,SE,135,0.0,0.0,68,0.01,,,0.04,WUHU216HW,2013-01-02 21:09:00,
2013-01-02 15:15:00,35.8,26.3,30.09,SE,135,0.0,0.0,68,0.02,,,0.05,WUHU216HW,2013-01-02 21:15:00,
2013-01-02 15:20:00,35.5,25.9,30.09,SE,135,0.0,0.0,68,0.02,,,0.05,WUHU216HW,2013-01-02 21:20:00,
2013-01-02 15:25:00,35.1,25.6,30.09,SE,135,0.0,0.0,68,0.01,,,0.05,WUHU216HW,2013-01-02 21:25:00,
2013-01-02 15:30:00,34.7,25.6,30.09,SE,135,0.0,0.0,69,0.01,,,0.05,WUHU216HW,2013-01-02 21:30:00,
2013-01-02 15:35:00,34.9,26.1,30.09,SE,135,0.0,0.0,70,0.01,,,0.05,WUHU216HW,2013-01-02 21:35:00,
2013-01-02 15:40:00,34.9,26.1,30.09,SE,135,0.0,0.0,70,0.01,,,0.05,WUHU216HW,2013-01-02 21:40:00,
2013-01-02 15:45:00,34.9,26.1,30.09,SE,135,0.0,0.0,70,0.01,,,0.05,WUHU216HW,2013-01-02 21:45:00,
2013-01-02 15:50:00,34.9,26.1,30.09,SE,135,0.0,0.0,70,0.01,,,0.05,WUHU216HW,2013-01-02 21:50:00,
2013-01-02 15:55:00,34.7,25.9,30.10,SE,135,0.0,0.0,70,0.01,,,0.05,WUHU216HW,2013-01-02 21:55:00,
2013-01-02 16:01:00,34.6,25.7,30.10,SE,135,0.0,0.0,70,0.01,,,0.05,WUHU216HW,2013-01-02 22:01:00,
2013-01-02 16:06:00,34.2,25.0,30.10,SE,135,0.0,0.0,69,0.01,,,0.05,WUHU216HW,2013-01-02 22:06:00,
2013-01-02 16:11:00,34.0,24.8,30.10,SE,135,0.0,0.0,69,0.02,,,0.06,WUHU216HW,2013-01-02 22:11:00,
2013-01-02 16:16:00,33.7,24.8,30.10,SE,135,0.0,0.0,70,0.01,,,0.06,WUHU216HW,2013-01-02 22:16:00,
2013-01-02 16:21:00,33.5,24.7,30.10,SE,135,0.0,0.0,70,0.01,,,0.06,WUHU216HW,2013-01-02 22:21:00,
2013-01-02 16:26:00,33.3,24.6,30.10,SE,135,0.0,0.0,70,0.01,,,0.06,WUHU216HW,2013-01-02 22:26:00,
2013-01-02 16:31:00,33.1,24.4,30.11,SE,135,0.0,0.0,70,0.01,,,0.06,WUHU216HW,2013-01-02 22:31:00,
2013-01-02 16:36:00,33.1,24.4,30.11,SE,135,0.0,0.0,70,0.01,,,0.06,WUHU216HW,2013-01-02 22:36:00,
2013-01-02 16:41:00,32.8,24.0,30.11,SE,135,0.0,0.0,70,0.01,,,0.06,WUHU216HW,2013-01-02 22:41:00,
2013-01-02 16:46:00,32.4,23.8,30.11,SE,135,0.0,0.0,70,0.01,,,0.06,WUHU216HW,2013-01-02 22:46:00,
2013-01-02 16:52:00,32.0,23.4,30.11,SE,135,0.0,0.0,70,0.01,,,0.06,WUHU216HW,2013-01-02 22:52:00,
2013-01-02 16:57:00,31.9,23.2,30.11,SE,135,0.0,0.0,70,0.01,,,0.06,WUHU216HW,2013-01-02 22:57:00,
2013-01-02 17:02:00,31.5,22.9,30.11,SE,135,0.0,0.0,70,0.01,,,0.06,WUHU216HW,2013-01-02 23:02:00,
2013-01-02 17:07:00,31.3,22.7,30.11,SE,135,0.0,0.0,70,0.00,,,0.06,WUHU216HW,2013-01-02 23:07:00,
2013-01-02 17:12:00,30.8,22.1,30.12,SE,135,0.0,0.0,70,0.00,,,0.06,WUHU216HW,2013-01-02 23:12:00,
2013-01-02 17:17:00,30.6,22.0,30.12,SE,135,0.0,0.0,70,0.00,,,0.06,WUHU216HW,2013-01-02 23:17:00,
2013-01-02 17:22:00,30.2,21.6,30.12,SE,135,0.0,0.0,70,0.00,,,0.06,WUHU216HW,2013-01-02 23:22:00,
2013-01-02 17:27:00,30.1,21.8,30.12,SE,135,0.0,0.0,71,0.00,,,0.06,WUHU216HW,2013-01-02 23:27:00,
2013-01-02 17:32:00,29.9,21.6,30.13,SE,135,0.0,0.0,71,0.00,,,0.06,WUHU216HW,2013-01-02 23:32:00,
2013-01-02 17:37:00,29.5,21.2,30.13,SE,135,0.0,0.0,71,0.00,,,0.06,WUHU216HW,2013-01-02 23:37:00,
2013-01-02 17:42:00,29.3,21.4,30.14,SE,135,0.0,0.0,72,0.00,,,0.06,WUHU216HW,2013-01-02 23:42:00,
2013-01-02 17:48:00,29.3,21.4,30.14,SE,135,0.0,0.0,72,0.00,,,0.06,WUHU216HW,2013-01-02 23:48:00,
2013-01-02 17:53:00,29.2,21.6,30.14,SE,135,0.0,0.0,73,0.00,,,0.06,WUHU216HW,2013-01-02 23:53:00,
2013-01-02 17:58:00,29.2,21.6,30.14,SE,135,0.0,0.0,73,0.00,,,0.06,WUHU216HW,2013-01-02 23:58:00,
2013-01-02 18:03:00,29.2,21.6,30.14,SE,135,0.0,0.0,73,0.00,,,0.06,WUHU216HW,2013-01-03 00:03:00,
2013-01-02 18:08:00,29.2,21.6,30.14,SE,135,0.0,0.0,73,0.00,,,0.06,WUHU216HW,2013-01-03 00:08:00,
2013-01-02 18:13:00,29.2,21.9,30.14,SE,135,0.0,0.0,74,0.00,,,0.06,WUHU216HW,2013-01-03 00:13:00,
2013-01-02 18:18:00,29.2,21.6,30.14,SE,135,0.0,0.0,73,0.00,,,0.06,WUHU216HW,2013-01-03 00:18:00,
2013-01-02 18:23:00,29.2,21.6,30.14,SE,135,0.0,0.0,73,0.00,,,0.06,WUHU216HW,2013-01-03 00:23:00,
2013-01-02 18:29:00,29.0,21.4,30.14,SE,135,0.0,0.0,73,0.00,,,0.06,WUHU216HW,2013-01-03 00:29:00,
2013-01-02 18:34:00,28.8,21.5,30.14,SE,135,0.0,0.0,74,0.00,,,0.06,WUHU216HW,2013-01-03 00:34:00,
2013-01-02 18:39:00,28.6,21.1,30.14,SE,135,0.0,0.0,73,0.00,,,0.06,WUHU216HW,2013-01-03 00:39:00,
2013-01-02 18:44:00,28.4,21.3,30.14,SE,135,0.0,0.0,74,0.00,,,0.06,WUHU216HW,2013-01-03 00:44:00,
2013-01-02 18:49:00,28.3,21.1,30.15,SE,135,0.0,0.0,74,0.00,,,0.06,WUHU216HW,2013-01-03 00:49:00,
2013-01-02 18:54:00,28.1,20.9,30.15,SE,135,0.0,0.0,74,0.00,,,0.06,WUHU216HW,2013-01-03 00:54:00,
2013-01-02 18:59:00,27.9,20.7,30.15,SE,135,0.0,0.0,74,0.00,,,0.06,WUHU216HW,2013-01-03 00:59:00,
2013-01-02 19:04:00,27.7,20.5,30.16,SE,135,0.0,0.0,74,0.00,,,0.06,WUHU216HW,2013-01-03 01:04:00,
2013-01-02 19:09:00,27.7,20.5,30.16,SE,135,0.0,0.0,74,0.00,,,0.06,WUHU216HW,2013-01-03 01:09:00,
2013-01-02 19:14:00,27.4,19.8,30.16,SE,135,0.0,0.0,73,0.00,,,0.06,WUHU216HW,2013-01-03 01:14:00,
2013-01-02 19:19:00,27.4,19.8,30.16,SE,135,0.0,0.0,73,0.00,,,0.06,WUHU216HW,2013-01-03 01:19:00,
2013-01-02 19:24:00,27.0,19.8,30.16,SE,135,0.0,0.0,74,0.00,,,0.06,WUHU216HW,2013-01-03 01:24:00,
2013-01-02 19:29:00,26.8,19.6,30.16,SE,135,0.0,0.0,74,0.00,,,0.06,WUHU216HW,2013-01-03 01:29:00,
2013-01-02 19:34:00,26.6,19.5,30.16,SE,135,0.0,0.0,74,0.00,,,0.06,WUHU216HW,2013-01-03 01:34:00,
2013-01-02 19:39:00,26.5,19.3,30.16,SE,135,0.0,0.0,74,0.00,,,0.06,WUHU216HW,2013-01-03 01:39:00,
2013-01-02 19:44:00,26.3,19.1,30.17,SE,135,0.0,0.0,74,0.00,,,0.06,WUHU216HW,2013-01-03 01:44:00,
2013-01-02 19:49:00,26.3,19.4,30.17,SE,135,0.0,0.0,75,0.00,,,0.06,WUHU216HW,2013-01-03 01:49:00,
2013-01-02 19:54:00,26.1,19.2,30.17,SE,135,0.0,0.0,75,0.00,,,0.06,WUHU216HW,2013-01-03 01:54:00,
2013-01-02 19:59:00,25.9,19.0,30.17,SE,135,0.0,0.0,75,0.00,,,0.06,WUHU216HW,2013-01-03 01:59:00,
2013-01-02 20:05:00,25.9,19.0,30.17,SE,135,0.0,0.0,75,0.00,,,0.06,WUHU216HW,2013-01-03 02:05:00,
2013-01-02 20:10:00,25.7,18.8,30.17,SE,135,0.0,0.0,75,0.00,,,0.06,WUHU216HW,2013-01-03 02:10:00,
2013-01-02 20:15:00,25.6,18.7,30.17,SE,135,0.0,0.0,75,0.00,,,0.06,WUHU216HW,2013-01-03 02:15:00,
2013-01-02 20:20:00,25.6,18.7,30.17,SE,135,0.0,0.0,75,0.00,,,0.06,WUHU216HW,2013-01-03 02:20:00,
2013-01-02 20:25:00,25.4,18.6,30.17,SE,135,0.0,0.0,75,0.00,,,0.06,WUHU216HW,2013-01-03 02:25:00,
2013-01-02 20:30:00,25.2,18.6,30.17,SE,135,0.0,0.0,76,0.00,,,0.06,WUHU216HW,2013-01-03 02:30:00,
2013-01-02 20:35:00,25.0,18.5,30.17,SE,135,0.0,0.0,76,0.00,,,0.06,WUHU216HW,2013-01-03 02:35:00,
2013-01-02 20:40:00,25.0,18.5,30.18,SE,135,0.0,0.0,76,0.00,,,0.06,WUHU216HW,2013-01-03 02:40:00,
2013-01-02 20:45:00,24.8,18.4,30.18,SE,135,0.0,0.0,76,0.00,,,0.06,WUHU216HW,2013-01-03 02:45:00,
2013-01-02 20:50:00,24.8,18.4,30.18,SE,135,0.0,0.0,76,0.00,,,0.06,WUHU216HW,2013-01-03 02:50:00,
2013-01-02 20:55:00,24.8,18.6,30.18,SE,135,0.0,0.0,77,0.00,,,0.06,WUHU216HW,2013-01-03 02:55:00,
2013-01-02 21:00:00,25.0,18.8,30.18,SE,135,0.0,0.0,77,0.00,,,0.06,WUHU216HW,2013-01-03 03:00:00,
2013-01-02 21:05:00,25.2,19.3,30.18,SE,135,0.0,0.0,78,0.00,,,0.06,WUHU216HW,2013-01-03 03:05:00,
2013-01-02 21:10:00,25.6,19.6,30.18,SE,135,0.0,0.0,78,0.00,,,0.06,WUHU216HW,2013-01-03 03:10:00,
2013-01-02 21:15:00,25.6,19.6,30.18,SE,135,0.0,0.0,78,0.00,,,0.06,WUHU216HW,2013-01-03 03:15:00,
2013-01-02 21:20:00,25.7,19.8,30.18,SE,135,0.0,0.0,78,0.00,,,0.06,WUHU216HW,2013-01-03 03:20:00,
2013-01-02 21:25:00,25.9,20.0,30.19,SE,135,0.0,0.0,78,0.00,,,0.06,WUHU216HW,2013-01-03 03:25:00,
2013-01-02 21:30:00,26.1,20.2,30.19,SE,135,0.0,0.0,78,0.00,,,0.06,WUHU216HW,2013-01-03 03:30:00,
2013-01-02 21:36:00,26.1,20.2,30.19,SE,135,0.0,0.0,78,0.00,,,0.06,WUHU216HW,2013-01-03 03:36:00,
2013-01-02 21:41:00,26.3,20.4,30.19,SE,135,0.0,0.0,78,0.00,,,0.06,WUHU216HW,2013-01-03 03:41:00,
2013-01-02 21:46:00,26.3,20.4,30.19,SE,135,0.0,0.0,78,0.00,,,0.06,WUHU216HW,2013-01-03 03:46:00,
2013-01-02 21:51:00,26.5,20.4,30.19,SE,135,0.0,0.0,78,0.00,,,0.06,WUHU216HW,2013-01-03 03:51:00,
2013-01-02 21:56:00,26.5,20.4,30.19,SE,135,0.0,0.0,78,0.00,,,0.06,WUHU216HW,2013-01-03 03:56:00,
2013-01-02 22:01:00,26.6,20.6,30.19,SE,135,0.0,0.0,78,0.00,,,0.06,WUHU216HW,2013-01-03 04:01:00,
2013-01-02 22:06:00,26.6,20.6,30.19,SE,135,0.0,0.0,78,0.00,,,0.06,WUHU216HW,2013-01-03 04:06:00,
2013-01-02 22:11:00,26.8,20.8,30.19,SE,135,0.0,0.0,78,0.00,,,0.06,WUHU216HW,2013-01-03 04:11:00,
2013-01-02 22:16:00,26.8,20.8,30.20,SE,135,0.0,0.0,78,0.00,,,0.06,WUHU216HW,2013-01-03 04:16:00,
2013-01-02 22:21:00,27.0,21.0,30.20,SE,135,0.0,0.0,78,0.00,,,0.06,WUHU216HW,2013-01-03 04:21:00,
2013-01-02 22:26:00,27.0,21.0,30.20,SE,135,0.0,0.0,78,0.00,,,0.06,WUHU216HW,2013-01-03 04:26:00,
2013-01-02 22:31:00,27.0,21.0,30.20,SE,135,0.0,0.0,78,0.00,,,0.06,WUHU216HW,2013-01-03 04:31:00,
2013-01-02 22:36:00,27.0,21.0,30.21,SE,135,0.0,0.0,78,0.00,,,0.06,WUHU216HW,2013-01-03 04:36:00,
2013-01-02 22:41:00,27.2,21.2,30.21,SE,135,0.0,0.0,78,0.00,,,0.06,WUHU216HW,2013-01-03 04:41:00,
2013-01-02 22:46:00,27.2,21.2,30.21,SE,135,0.0,0.0,78,0.00,,,0.06,WUHU216HW,2013-01-03 04:46:00,
2013-01-02 22:51:00,27.4,21.3,30.20,SE,135,0.0,0.0,78,0.00,,,0.06,WUHU216HW,2013-01-03 04:51:00,
2013-01-02 22:56:00,27.4,21.3,30.20,SE,135,0.0,0.0,78,0.00,,,0.06,WUHU216HW,2013-01-03 04:56:00,
2013-01-02 23:00:00,27.4,21.3,30.21,SE,135,0.0,0.0,78,0.00,,,0.06,WUHU216HW,2013-01-03 05:00:00,
2013-01-02 23:01:00,27.4,21.7,30.20,SE,135,0.0,0.0,79,0.00,,,0.06,WUHU216HW,2013-01-03 05:01:00,
2013-01-02 23:02:00,27.4,21.7,30.20,SE,135,0.0,0.0,79,0.00,,,0.06,WUHU216HW,2013-01-03 05:02:00,
2013-01-02 23:07:00,27.4,21.7,30.21,SE,135,0.0,0.0,79,0.00,,,0.06,WUHU216HW,2013-01-03 05:07:00,
2013-01-02 23:12:00,27.4,21.7,30.21,SE,135,0.0,0.0,79,0.00,,,0.06,WUHU216HW,2013-01-03 05:12:00,
2013-01-02 23:17:00,27.4,21.7,30.21,SE,135,0.0,0.0,79,0.00,,,0.06,WUHU216HW,2013-01-03 05:17:00,
2013-01-02 23:22:00,27.5,21.9,30.21,SE,135,0.0,0.0,79,0.00,,,0.06,WUHU216HW,2013-01-03 05:22:00,
2013-01-02 23:27:00,27.5,21.9,30.21,SE,135,0.0,0.0,79,0.00,,,0.06,WUHU216HW,2013-01-03 05:27:00,
2013-01-02 23:32:00,27.5,21.9,30.21,SE,135,0.0,0.0,79,0.00,,,0.06,WUHU216HW,2013-01-03 05:32:00,
2013-01-02 23:38:00,27.5,21.9,30.21,SE,135,0.0,0.0,79,0.00,,,0.06,WUHU216HW,2013-01-03 05:38:00,
2013-01-02 23:43:00,27.5,21.9,30.22,SE,135,0.0,0.0,79,0.00,,,0.06,WUHU216HW,2013-01-03 05:43:00,
2013-01-02 23:48:00,27.5,21.9,30.21,SE,135,0.0,0.0,79,0.00,,,0.06,WUHU216HW,2013-01-03 05:48:00,
2013-01-02 23:53:00,27.5,21.9,30.22,SE,135,0.0,0.0,79,0.00,,,0.06,WUHU216HW,2013-01-03 05:53:00,
2013-01-02 23:58:00,27.5,21.9,30.21,SE,135,0.0,0.0,79,0.00,,,0.06,WUHU216HW,2013-01-03 05:58:00,